Time;durP1;ratioP1;P1;durP2;ratioP2;P2;SDS_P1;SDS_P2;PMS_P1;PMS_P2;Temp;Humidity;BMP_temperature;BMP_pressure;BME280_temperature;BME280_humidity;BME280_pressure;Samples;Min_cycle;Max_cycle;Signal;HPM_P1;HPM_P2
2021/01/31 00:00:59;;;;;;;21.13;11.63;;;231.20;1920.00;;;;;;5076120;28;20466;-79
2021/01/31 00:03:29;;;;;;;17.80;10.35;;;231.20;1945.60;;;;;;5068852;28;20043;-85
2021/01/31 00:05:58;;;;;;;20.27;11.52;;;231.10;1945.60;;;;;;5070403;28;20081;-83
2021/01/31 00:08:24;;;;;;;22.55;12.95;;;231.10;1945.60;;;;;;5082509;28;20032;-85
2021/01/31 00:10:51;;;;;;;24.10;15.30;;;231.10;1945.60;;;;;;5068245;28;20482;-84
2021/01/31 00:13:18;;;;;;;25.65;15.23;;;231.10;1971.20;;;;;;5066397;28;20017;-80
2021/01/31 00:15:46;;;;;;;23.23;14.63;;;231.10;1971.20;;;;;;5058202;28;20079;-83
2021/01/31 00:18:15;;;;;;;25.00;14.45;;;231.10;1971.20;;;;;;5043093;28;20108;-82
2021/01/31 00:20:45;;;;;;;24.40;15.65;;;231.00;1996.80;;;;;;5055025;28;20112;-84
2021/01/31 00:23:12;;;;;;;24.77;16.25;;;231.00;1996.80;;;;;;5053812;28;20436;-80
2021/01/31 00:25:37;;;;;;;26.67;16.65;;;231.00;1996.80;;;;;;5064714;28;20424;-82
2021/01/31 00:28:04;;;;;;;32.40;20.65;;;230.90;2048.00;;;;;;5053763;28;20108;-77
2021/01/31 00:30:36;;;;;;;32.08;20.55;;;230.80;2073.60;;;;;;5057590;28;20017;-85
2021/01/31 00:33:08;;;;;;;30.95;20.35;;;230.80;2073.60;;;;;;5053840;28;20414;-88
2021/01/31 00:35:36;;;;;;;39.03;24.33;;;230.70;2073.60;;;;;;5054273;28;20102;-81
2021/01/31 00:38:03;;;;;;;44.35;26.65;;;230.70;2073.60;;;;;;5054789;28;20104;-79
2021/01/31 00:40:29;;;;;;;38.65;24.50;;;230.60;2073.60;;;;;;5054967;28;20055;-80
2021/01/31 00:42:55;;;;;;;39.55;25.20;;;230.70;2073.60;;;;;;5054380;28;20029;-84
2021/01/31 00:45:23;;;;;;;46.35;27.10;;;230.60;2099.20;;;;;;5054965;28;20025;-88
2021/01/31 00:47:49;;;;;;;38.63;23.05;;;230.50;2124.80;;;;;;5053317;28;20034;-80
2021/01/31 00:50:21;;;;;;;41.20;24.45;;;230.50;2099.20;;;;;;5052391;28;20025;-87
2021/01/31 00:52:46;;;;;;;43.80;25.63;;;230.40;2124.80;;;;;;5054302;28;20032;-85
2021/01/31 00:55:13;;;;;;;38.03;22.35;;;230.40;2124.80;;;;;;5053918;28;20025;-82
2021/01/31 00:57:39;;;;;;;44.13;22.02;;;205.70;2124.80;;;;;;5053767;28;20025;-82
2021/01/31 01:00:29;;;;;;;47.45;26.90;;;205.70;2124.80;;;;;;5053627;28;20466;-76
2021/01/31 01:02:55;;;;;;;40.30;24.17;;;205.70;2150.40;;;;;;4992402;28;20054;-82
2021/01/31 01:05:23;;;;;;;37.78;23.20;;;205.60;2150.40;;;;;;4986573;28;20038;-87
2021/01/31 01:07:49;;;;;;;36.67;23.25;;;205.60;2150.40;;;;;;4992411;28;20046;-74
2021/01/31 01:10:17;;;;;;;34.47;23.35;;;205.60;2124.80;;;;;;4992714;28;20031;-78
2021/01/31 01:12:43;;;;;;;38.00;22.45;;;205.60;2150.40;;;;;;4991502;28;20034;-87
2021/01/31 01:15:11;;;;;;;40.42;25.52;;;205.60;2150.40;;;;;;4976495;28;20041;-74
2021/01/31 01:17:37;;;;;;;43.28;25.88;;;205.60;2150.40;;;;;;4975489;28;20434;-86
2021/01/31 01:20:05;;;;;;;38.67;22.50;;;205.50;2176.00;;;;;;4992432;28;20026;-77
2021/01/31 01:22:31;;;;;;;32.95;19.98;;;205.50;2176.00;;;;;;4992894;28;20050;-85
2021/01/31 01:24:56;;;;;;;32.05;19.20;;;205.60;2176.00;;;;;;4974543;28;20058;-79
2021/01/31 01:27:23;;;;;;;33.28;20.13;;;205.60;2150.40;;;;;;4986766;28;20046;-88
2021/01/31 01:29:49;;;;;;;35.65;22.98;;;205.60;2150.40;;;;;;4987447;28;20026;-80
2021/01/31 01:32:15;;;;;;;33.78;21.77;;;205.60;2176.00;;;;;;4989759;28;20113;-85
2021/01/31 01:34:42;;;;;;;39.80;23.85;;;205.60;2176.00;;;;;;4986845;28;20542;-78
2021/01/31 01:37:11;;;;;;;34.83;21.60;;;205.60;2176.00;;;;;;4985066;28;20034;-88
2021/01/31 01:39:37;;;;;;;31.90;18.70;;;205.60;2150.40;;;;;;5009663;28;20072;-81
2021/01/31 01:42:06;;;;;;;31.75;19.38;;;205.60;2176.00;;;;;;5068999;28;20021;-83
2021/01/31 01:44:33;;;;;;;47.08;27.00;;;205.60;2176.00;;;;;;5053724;28;20036;-82
2021/01/31 01:47:02;;;;;;;37.83;23.65;;;205.60;2176.00;;;;;;5053127;28;20017;-77
2021/01/31 01:49:37;;;;;;;40.30;24.08;;;205.60;2176.00;;;;;;5053401;28;20036;-83
2021/01/31 01:52:12;;;;;;;34.40;20.70;;;205.50;2176.00;;;;;;5053278;28;20235;-78
2021/01/31 01:54:42;;;;;;;27.42;17.80;;;205.50;2201.60;;;;;;5053964;28;20021;-85
2021/01/31 01:57:20;;;;;;;26.55;17.77;;;205.50;2176.00;;;;;;5053281;28;20021;-82
2021/01/31 01:59:48;;;;;;;28.30;18.23;;;205.50;2201.60;;;;;;5051967;28;20108;-86
2021/01/31 02:02:29;;;;;;;29.05;17.48;;;205.60;2176.00;;;;;;5052794;28;20033;-73
2021/01/31 02:04:59;;;;;;;28.13;17.42;;;205.60;2201.60;;;;;;5052622;28;20075;-81
2021/01/31 02:07:24;;;;;;;29.40;18.17;;;205.60;2201.60;;;;;;5052859;28;20025;-86
2021/01/31 02:09:51;;;;;;;31.33;19.08;;;205.60;2176.00;;;;;;5051052;28;20225;-80
2021/01/31 02:12:23;;;;;;;25.83;17.70;;;205.60;2176.00;;;;;;5052133;28;20096;-86
2021/01/31 02:14:51;;;;;;;27.25;17.52;;;205.60;2201.60;;;;;;5057338;28;20051;-87
2021/01/31 02:17:29;;;;;;;27.10;17.80;;;205.60;2176.00;;;;;;5060306;28;20021;-75
2021/01/31 02:20:25;;;;;;;27.92;17.58;;;205.60;2201.60;;;;;;5052409;28;20082;-87
2021/01/31 02:23:15;;;;;;;29.90;18.48;;;205.60;2201.60;;;;;;5052197;28;20040;-73
2021/01/31 02:25:47;;;;;;;27.77;18.10;;;205.60;2176.00;;;;;;5053365;28;20029;-76
2021/01/31 02:28:32;;;;;;;30.88;18.10;;;205.50;2176.00;;;;;;5051508;28;20021;-81
2021/01/31 02:31:03;;;;;;;28.55;18.38;;;205.50;2201.60;;;;;;5052250;28;20040;-88
2021/01/31 02:33:47;;;;;;;26.63;18.55;;;205.50;2176.00;;;;;;5050908;28;20060;-76
2021/01/31 02:36:29;;;;;;;28.58;19.08;;;205.50;2201.60;;;;;;5053461;28;20535;-88
2021/01/31 02:39:19;;;;;;;28.27;18.20;;;205.50;2201.60;;;;;;5051989;28;20029;-75
2021/01/31 02:42:15;;;;;;;27.13;17.73;;;205.40;2227.20;;;;;;5051728;28;20025;-82
2021/01/31 02:44:46;;;;;;;27.90;17.20;;;205.40;2201.60;;;;;;5052023;28;20033;-84
2021/01/31 02:47:17;;;;;;;34.13;18.42;;;205.40;2227.20;;;;;;5041196;28;20021;-78
2021/01/31 02:50:01;;;;;;;32.08;18.20;;;205.40;2227.20;;;;;;5050957;28;20025;-85
2021/01/31 02:52:43;;;;;;;30.02;18.42;;;205.40;2201.60;;;;;;5046677;28;20195;-85
2021/01/31 02:55:19;;;;;;;33.70;19.98;;;205.40;2227.20;;;;;;5052842;28;20028;-86
2021/01/31 02:57:50;;;;;;;29.65;19.15;;;205.40;2201.60;;;;;;5051798;28;20046;-78
2021/01/31 03:00:25;;;;;;;29.60;19.63;;;205.30;2227.20;;;;;;5059687;28;20033;-88
2021/01/31 03:03:18;;;;;;;27.67;18.88;;;205.30;2252.80;;;;;;5050108;28;20064;-85
2021/01/31 03:05:49;;;;;;;28.88;18.52;;;205.30;2252.80;;;;;;4990946;28;20038;-80
2021/01/31 03:08:20;;;;;;;30.35;20.25;;;205.30;2252.80;;;;;;4990079;28;20380;-78
2021/01/31 03:11:22;;;;;;;30.70;19.98;;;205.20;2252.80;;;;;;4988866;28;20042;-86
2021/01/31 03:13:59;;;;;;;32.88;22.65;;;205.20;2252.80;;;;;;4925105;29;20091;-84
2021/01/31 03:16:37;;;;;;;36.60;24.42;;;205.20;2252.80;;;;;;4918319;29;20401;-76
2021/01/31 03:19:08;;;;;;;37.53;25.48;;;205.10;2252.80;;;;;;4927208;29;20078;-85
2021/01/31 03:21:37;;;;;;;40.20;27.52;;;205.00;2252.80;;;;;;4925180;29;20039;-80
2021/01/31 03:24:20;;;;;;;44.83;28.55;;;205.00;2252.80;;;;;;4917987;29;20051;-87
2021/01/31 03:27:10;;;;;;;46.08;29.73;;;204.90;2252.80;;;;;;4912363;29;20047;-86
2021/01/31 03:29:36;;;;;;;47.28;30.58;;;204.80;2252.80;;;;;;4923337;29;20072;-88
2021/01/31 03:32:11;;;;;;;48.22;31.98;;;180.10;2252.80;;;;;;4913397;29;20075;-88
2021/01/31 03:34:50;;;;;;;49.60;34.05;;;180.10;2252.80;;;;;;4912002;29;20028;-78
2021/01/31 03:37:19;;;;;;;53.97;34.63;;;180.00;2252.80;;;;;;4929889;29;20557;-86
2021/01/31 03:39:46;;;;;;;56.78;37.08;;;179.90;2252.80;;;;;;4911999;29;20047;-81
2021/01/31 03:42:13;;;;;;;54.15;38.13;;;179.90;2252.80;;;;;;4937135;28;20026;-88
2021/01/31 03:44:42;;;;;;;58.33;38.92;;;179.90;2252.80;;;;;;4988333;28;20518;-75
2021/01/31 03:47:34;;;;;;;62.90;42.00;;;179.90;2252.80;;;;;;4989658;28;20545;-82
2021/01/31 03:50:01;;;;;;;68.40;47.63;;;179.90;2252.80;;;;;;5007063;28;20036;-78
2021/01/31 03:52:27;;;;;;;78.03;51.55;;;179.80;2252.80;;;;;;5055190;28;20409;-81
2021/01/31 03:54:54;;;;;;;79.63;52.30;;;179.70;2252.80;;;;;;5054307;28;20025;-81
2021/01/31 03:57:31;;;;;;;71.85;51.72;;;179.70;2252.80;;;;;;5054037;28;20081;-77
2021/01/31 04:00:03;;;;;;;76.47;53.10;;;179.60;2252.80;;;;;;5048917;28;20078;-87
2021/01/31 04:02:33;;;;;;;81.43;54.72;;;179.50;2252.80;;;;;;5050629;28;20543;-77
2021/01/31 04:05:01;;;;;;;75.43;53.05;;;179.50;2252.80;;;;;;5054640;28;20041;-73
2021/01/31 04:07:37;;;;;;;73.30;51.20;;;179.50;2252.80;;;;;;5054798;28;20024;-87
2021/01/31 04:10:05;;;;;;;69.57;49.92;;;179.50;2252.80;;;;;;5048542;28;20044;-88
2021/01/31 04:12:38;;;;;;;68.22;48.50;;;179.50;2252.80;;;;;;5056544;28;20028;-77
2021/01/31 04:15:13;;;;;;;76.35;51.35;;;179.50;2252.80;;;;;;5046310;28;20053;-85
2021/01/31 04:17:46;;;;;;;73.32;52.42;;;179.60;2252.80;;;;;;5053818;28;20059;-77
2021/01/31 04:20:12;;;;;;;73.78;52.22;;;179.50;2252.80;;;;;;5047523;28;20113;-87
2021/01/31 04:22:37;;;;;;;79.22;53.53;;;179.50;2252.80;;;;;;5054189;28;20506;-80
2021/01/31 04:25:04;;;;;;;76.03;52.53;;;179.60;2252.80;;;;;;5054001;28;20041;-88
2021/01/31 04:27:30;;;;;;;83.18;54.50;;;179.60;2252.80;;;;;;5053677;28;20025;-83
2021/01/31 04:29:55;;;;;;;80.65;55.17;;;179.70;2252.80;;;;;;5054637;28;20052;-76
2021/01/31 04:32:21;;;;;;;74.88;52.47;;;179.70;2252.80;;;;;;5054223;28;20096;-81
2021/01/31 04:34:47;;;;;;;78.15;54.10;;;179.60;2252.80;;;;;;5053669;28;20025;-81
2021/01/31 04:37:13;;;;;;;74.05;53.70;;;179.70;2252.80;;;;;;5054429;28;20029;-82
2021/01/31 04:39:38;;;;;;;78.50;54.47;;;179.60;2252.80;;;;;;5053379;28;20036;-81
2021/01/31 04:42:07;;;;;;;77.32;51.17;;;179.70;2252.80;;;;;;5053287;28;20029;-75
2021/01/31 04:44:33;;;;;;;78.60;53.83;;;179.60;2252.80;;;;;;5053788;28;20033;-88
2021/01/31 04:47:06;;;;;;;78.05;54.40;;;179.70;2252.80;;;;;;5055933;28;20458;-83
2021/01/31 04:49:38;;;;;;;;;;;179.70;2252.80;;;;;;5054579;28;20031;-79
2021/01/31 04:52:42;;;;;;;75.63;54.40;;;179.60;2252.80;;;;;;5057718;28;19916;-78
2021/01/31 04:55:11;;;;;;;;;;;179.60;2252.80;;;;;;5060768;28;20024;-81
2021/01/31 04:57:45;;;;;;;64.10;47.03;;;179.50;2252.80;;;;;;5051480;28;19913;-88
2021/01/31 05:00:24;;;;;;;65.95;46.28;;;179.20;2252.80;;;;;;5049139;28;20553;-85
2021/01/31 05:02:57;;;;;;;52.67;39.78;;;179.20;2252.80;;;;;;5052680;28;20045;-89
2021/01/31 05:05:45;;;;;;;56.80;38.92;;;179.20;2252.80;;;;;;5054236;28;20029;-84
2021/01/31 05:08:23;;;;;;;55.50;38.17;;;179.30;2252.80;;;;;;5046965;28;20079;-71
2021/01/31 05:10:52;;;;;;;47.20;35.70;;;179.30;2252.80;;;;;;5052966;28;20017;-80
2021/01/31 05:13:27;;;;;;;45.75;33.33;;;154.50;2252.80;;;;;;5052913;28;20024;-83
2021/01/31 05:16:06;;;;;;;38.33;29.80;;;154.40;2252.80;;;;;;5052586;28;20020;-72
2021/01/31 05:18:34;;;;;;;36.58;29.05;;;154.30;2252.80;;;;;;5052926;28;20036;-86
2021/01/31 05:21:06;;;;;;;42.72;31.23;;;154.30;2252.80;;;;;;5053135;28;20101;-85
2021/01/31 05:23:42;;;;;;;41.00;30.48;;;154.10;2252.80;;;;;;5053724;28;20389;-81
2021/01/31 05:26:11;;;;;;;40.15;28.42;;;154.10;2252.80;;;;;;5052638;28;20056;-72
2021/01/31 05:28:47;;;;;;;39.60;30.58;;;154.50;2252.80;;;;;;5053972;28;20025;-82
2021/01/31 05:31:13;;;;;;;37.30;27.80;;;154.00;2252.80;;;;;;5049287;28;20078;-85
2021/01/31 05:33:55;;;;;;;41.78;29.77;;;154.10;2252.80;;;;;;5052888;28;20033;-72
2021/01/31 05:36:24;;;;;;;42.50;29.98;;;154.00;2252.80;;;;;;5048363;28;20021;-77
2021/01/31 05:38:52;;;;;;;40.30;28.40;;;154.00;2252.80;;;;;;5052437;28;20461;-86
2021/01/31 05:41:35;;;;;;;36.53;26.45;;;154.10;2252.80;;;;;;5052325;28;20021;-70
2021/01/31 05:44:09;;;;;;;35.20;24.93;;;154.10;2252.80;;;;;;5051829;28;20044;-81
2021/01/31 05:46:49;;;;;;;33.90;27.20;;;154.20;2252.80;;;;;;5052616;28;20021;-82
2021/01/31 05:49:44;;;;;;;39.33;27.63;;;154.10;2252.80;;;;;;5052540;28;20025;-85
2021/01/31 05:52:13;;;;;;;40.67;28.08;;;154.00;2252.80;;;;;;5051656;28;20037;-80
2021/01/31 05:54:40;;;;;;;31.85;25.48;;;153.80;2252.80;;;;;;5055203;28;20121;-77
2021/01/31 05:57:29;;;;;;;37.13;26.23;;;153.60;2252.80;;;;;;5053003;28;20021;-77
2021/01/31 05:59:57;;;;;;;34.78;26.63;;;128.70;2252.80;;;;;;5065321;28;20121;-78
2021/01/31 06:02:33;;;;;;;38.28;30.10;;;128.50;2252.80;;;;;;5052354;28;20020;-74
2021/01/31 06:05:20;;;;;;;41.22;28.65;;;128.20;2252.80;;;;;;5051755;28;20045;-70
2021/01/31 06:07:56;;;;;;;35.25;26.45;;;128.30;2252.80;;;;;;5053989;28;20028;-85
2021/01/31 06:10:24;;;;;;;32.50;26.23;;;128.50;2252.80;;;;;;5052686;28;20017;-79
2021/01/31 06:12:50;;;;;;;37.40;28.70;;;128.30;2252.80;;;;;;5052985;28;20044;-85
2021/01/31 06:15:25;;;;;;;41.53;31.77;;;128.20;2252.80;;;;;;5051259;28;20584;-76
2021/01/31 06:18:04;;;;;;;67.63;44.38;;;128.10;2252.80;;;;;;5048269;28;20482;-71
2021/01/31 06:20:33;;;;;;;80.72;47.90;;;103.20;2227.20;;;;;;5051794;28;20027;-77
2021/01/31 06:22:59;;;;;;;87.28;50.58;;;103.00;2227.20;;;;;;5051264;28;20044;-71
2021/01/31 06:25:47;;;;;;;90.10;54.20;;;102.90;2227.20;;;;;;5052564;28;20373;-71
2021/01/31 06:28:21;;;;;;;95.13;52.40;;;102.70;2227.20;;;;;;4991248;28;20515;-75
2021/01/31 06:31:06;;;;;;;90.10;52.15;;;102.60;2227.20;;;;;;4988929;28;20050;-78
2021/01/31 06:33:31;;;;;;;100.10;53.65;;;102.50;2227.20;;;;;;4975039;28;20065;-85
2021/01/31 06:36:15;;;;;;;93.43;52.35;;;102.50;2227.20;;;;;;4995058;28;20136;-83
2021/01/31 06:38:50;;;;;;;;;;;102.50;2227.20;;;;;;4999843;28;20112;-77
2021/01/31 06:41:54;;;;;;;102.32;53.42;;;77.70;2227.20;;;;;;4981202;28;19913;-72
2021/01/31 06:44:38;;;;;;;91.90;51.88;;;77.50;2227.20;;;;;;4951456;28;20055;-73
2021/01/31 06:47:09;;;;;;;104.57;52.45;;;77.20;2227.20;;;;;;4949970;28;20058;-73
2021/01/31 06:49:38;;;;;;;102.40;52.38;;;76.90;2227.20;;;;;;4953901;28;20555;-74
2021/01/31 06:52:10;;;;;;;97.95;52.25;;;76.80;2227.20;;;;;;4950260;28;20043;-72
2021/01/31 06:54:57;;;;;;;101.35;52.83;;;52.10;2227.20;;;;;;4948769;29;20036;-78
2021/01/31 06:58:03;;;;;;;96.75;50.63;;;52.10;2227.20;;;;;;4957090;28;20083;-79
2021/01/31 07:00:35;;;;;;;111.18;53.13;;;52.00;2227.20;;;;;;4901149;29;20209;-74
2021/01/31 07:03:37;;;;;;;141.48;58.97;;;51.80;2227.20;;;;;;4902461;29;20052;-73
2021/01/31 07:06:12;;;;;;;112.50;54.10;;;51.90;2227.20;;;;;;4947686;28;20034;-71
2021/01/31 07:08:38;;;;;;;132.02;59.63;;;51.80;2227.20;;;;;;4952406;28;20488;-72
2021/01/31 07:11:29;;;;;;;124.53;57.08;;;51.80;2227.20;;;;;;4951208;28;20046;-72
2021/01/31 07:14:24;;;;;;;102.13;51.13;;;51.80;2227.20;;;;;;4958419;28;20035;-82
2021/01/31 07:23:01;;;;;;;110.97;56.67;;;51.70;2227.20;;;;;;5039458;22;20060;-83
2021/01/31 07:26:04;;;;;;;112.68;54.33;;;51.70;2227.20;;;;;;5063820;28;20025;-79
2021/01/31 07:28:59;;;;;;;112.30;52.67;;;51.60;2227.20;;;;;;5026511;28;20450;-81
2021/01/31 07:31:38;;;;;;;116.15;53.67;;;51.60;2227.20;;;;;;5019584;28;20097;-77
2021/01/31 07:34:11;;;;;;;103.82;50.30;;;51.60;2227.20;;;;;;5014545;28;20774;-74
2021/01/31 07:37:03;;;;;;;126.75;53.92;;;51.50;2227.20;;;;;;5018274;28;20505;-75
2021/01/31 07:39:37;;;;;;;125.63;53.42;;;51.60;2227.20;;;;;;5011941;28;20720;-74
2021/01/31 07:42:04;;;;;;;125.72;55.90;;;51.50;2227.20;;;;;;5017044;28;20065;-74
2021/01/31 07:44:34;;;;;;;108.82;50.42;;;51.50;2227.20;;;;;;5015787;28;20065;-74
2021/01/31 07:47:00;;;;;;;146.85;59.00;;;51.50;2227.20;;;;;;5010230;28;20037;-74
2021/01/31 07:49:46;;;;;;;130.18;55.22;;;51.50;2227.20;;;;;;5014311;28;20053;-74
2021/01/31 07:52:12;;;;;;;128.18;56.65;;;51.40;2227.20;;;;;;5014660;28;20046;-73
2021/01/31 07:54:39;;;;;;;154.45;59.90;;;51.40;2227.20;;;;;;5015510;28;20026;-75
2021/01/31 07:57:34;;;;;;;132.43;56.40;;;51.40;2227.20;;;;;;5012265;28;20056;-74
2021/01/31 08:00:17;;;;;;;146.95;57.60;;;51.40;2227.20;;;;;;5010522;28;20038;-75
2021/01/31 08:02:46;;;;;;;139.43;55.70;;;51.30;2227.20;;;;;;5014553;28;20418;-74
2021/01/31 08:05:46;;;;;;;141.40;53.42;;;51.30;2227.20;;;;;;5013215;28;20048;-73
2021/01/31 08:08:51;;;;;;;113.60;51.25;;;51.30;2227.20;;;;;;5010335;28;20057;-74
2021/01/31 08:11:17;;;;;;;128.20;52.08;;;51.20;2227.20;;;;;;5016592;28;20062;-73
2021/01/31 08:13:51;;;;;;;121.93;54.33;;;26.50;2201.60;;;;;;5052497;28;20021;-73
2021/01/31 08:16:35;;;;;;;;;;;26.50;2201.60;;;;;;5052501;28;20059;-73
2021/01/31 08:19:08;;;;;;;172.70;60.53;;;26.40;2201.60;;;;;;5055522;28;19969;-73
2021/01/31 08:22:01;;;;;;;137.18;55.97;;;26.30;2201.60;;;;;;5055527;28;20080;-73
2021/01/31 08:25:04;;;;;;;132.20;54.35;;;26.20;2201.60;;;;;;5055802;28;20048;-73
2021/01/31 08:27:41;;;;;;;171.90;61.13;;;26.20;2201.60;;;;;;5045823;28;20026;-73
2021/01/31 08:30:28;;;;;;;151.13;57.45;;;26.20;2201.60;;;;;;5042504;28;20028;-73
2021/01/31 08:33:02;;;;;;;171.15;60.30;;;26.20;2201.60;;;;;;5040080;28;20025;-75
2021/01/31 08:35:37;;;;;;;155.27;58.60;;;26.20;2201.60;;;;;;5045180;28;20025;-73
2021/01/31 08:38:14;;;;;;;161.88;57.90;;;26.20;2201.60;;;;;;5040780;28;20044;-73
2021/01/31 08:40:41;;;;;;;134.82;51.08;;;26.30;2201.60;;;;;;5034804;28;20026;-72
2021/01/31 08:43:10;;;;;;;119.97;50.45;;;26.30;2201.60;;;;;;5048644;28;20032;-73
2021/01/31 08:45:45;;;;;;;138.90;53.53;;;26.30;2201.60;;;;;;5040495;28;20025;-73
2021/01/31 08:48:25;;;;;;;114.10;48.47;;;26.50;2201.60;;;;;;5041178;28;20488;-77
2021/01/31 08:51:04;;;;;;;145.52;55.25;;;26.30;2201.60;;;;;;5048001;28;20037;-73
2021/01/31 08:53:30;;;;;;;106.75;47.97;;;26.50;2201.60;;;;;;5039859;28;20061;-73
2021/01/31 08:56:11;;;;;;;107.47;45.38;;;26.40;2201.60;;;;;;5043328;28;20080;-73
2021/01/31 08:58:38;;;;;;;117.70;47.85;;;26.40;2201.60;;;;;;5045861;28;20049;-73
2021/01/31 09:01:05;;;;;;;104.10;47.20;;;26.30;2201.60;;;;;;5046196;28;20025;-74
2021/01/31 09:03:30;;;;;;;116.90;50.10;;;26.20;2201.60;;;;;;5054174;28;20132;-73
2021/01/31 09:05:59;;;;;;;123.65;49.72;;;26.30;2201.60;;;;;;5065232;28;20061;-76
2021/01/31 09:08:25;;;;;;;117.03;49.20;;;26.40;2201.60;;;;;;5055473;28;20087;-69
2021/01/31 09:10:51;;;;;;;108.15;46.88;;;26.30;2201.60;;;;;;5054500;28;20029;-68
2021/01/31 09:13:31;;;;;;;118.20;49.75;;;26.30;2201.60;;;;;;5061678;28;20025;-70
2021/01/31 09:16:34;;;;;;;106.55;46.10;;;26.40;2201.60;;;;;;5077363;28;20024;-77
2021/01/31 09:19:03;;;;;;;128.15;49.72;;;26.30;2201.60;;;;;;5059835;28;20111;-71
2021/01/31 09:21:32;;;;;;;108.32;48.70;;;26.30;2201.60;;;;;;5060848;28;20049;-69
2021/01/31 09:24:04;;;;;;;124.68;51.92;;;26.30;2201.60;;;;;;5054594;28;20394;-69
2021/01/31 09:26:29;;;;;;;105.88;48.40;;;26.30;2201.60;;;;;;5041116;28;20432;-73
2021/01/31 09:28:58;;;;;;;117.70;51.63;;;26.30;2201.60;;;;;;5057931;28;20033;-74
2021/01/31 09:31:27;;;;;;;138.25;55.63;;;26.20;2201.60;;;;;;5045976;28;20029;-74
2021/01/31 09:34:01;;;;;;;144.55;57.80;;;26.30;2201.60;;;;;;5053573;28;20518;-74
2021/01/31 09:36:33;;;;;;;153.30;58.17;;;26.30;2201.60;;;;;;5055374;28;20225;-71
2021/01/31 09:39:03;;;;;;;143.90;56.67;;;26.40;2201.60;;;;;;5055265;28;20381;-71
2021/01/31 09:41:30;;;;;;;119.88;51.45;;;26.40;2201.60;;;;;;5057222;28;20052;-71
2021/01/31 09:44:08;;;;;;;141.85;53.47;;;26.40;2201.60;;;;;;5059181;28;20128;-71
2021/01/31 09:46:35;;;;;;;127.53;51.92;;;26.50;2201.60;;;;;;5059398;28;20097;-75
2021/01/31 09:49:18;;;;;;;139.68;54.38;;;26.50;2201.60;;;;;;5062423;28;20072;-75
2021/01/31 09:51:44;;;;;;;138.55;56.28;;;26.40;2201.60;;;;;;5050636;28;20036;-74
2021/01/31 09:54:18;;;;;;;108.90;49.22;;;26.40;2201.60;;;;;;5057632;28;20413;-74
2021/01/31 09:56:55;;;;;;;112.85;49.28;;;26.40;2201.60;;;;;;5037320;28;20099;-74
2021/01/31 09:59:29;;;;;;;97.75;44.72;;;26.30;2201.60;;;;;;5047192;28;20021;-74
2021/01/31 10:02:23;;;;;;;114.10;47.35;;;26.30;2201.60;;;;;;5052390;28;20052;-74
2021/01/31 10:05:01;;;;;;;98.40;44.60;;;26.40;2201.60;;;;;;5054299;28;20074;-78
2021/01/31 10:07:34;;;;;;;128.00;50.20;;;26.40;2201.60;;;;;;5063918;28;20549;-74
2021/01/31 10:10:43;;;;;;;112.10;49.25;;;26.50;2201.60;;;;;;5061135;28;20033;-78
2021/01/31 10:13:37;;;;;;;144.15;51.97;;;26.50;2201.60;;;;;;4922790;28;20050;-76
2021/01/31 10:16:20;;;;;;;113.05;49.90;;;51.20;2227.20;;;;;;4914251;29;20059;-75
2021/01/31 10:18:47;;;;;;;136.83;52.73;;;51.20;2227.20;;;;;;4901863;29;20127;-78
2021/01/31 10:21:19;;;;;;;101.13;46.38;;;51.30;2227.20;;;;;;4910247;29;20754;-74
2021/01/31 10:23:47;;;;;;;98.25;45.47;;;51.30;2227.20;;;;;;4915354;29;20427;-74
2021/01/31 10:26:18;;;;;;;110.30;48.13;;;51.30;2227.20;;;;;;4910110;29;20442;-75
2021/01/31 10:28:47;;;;;;;106.32;45.75;;;51.20;2227.20;;;;;;4908786;29;20147;-75
2021/01/31 10:31:27;;;;;;;97.32;44.67;;;51.30;2227.20;;;;;;4896801;29;20506;-72
2021/01/31 10:33:54;;;;;;;109.68;45.10;;;51.40;2227.20;;;;;;4906888;29;20036;-74
2021/01/31 10:36:28;;;;;;;71.18;36.13;;;51.30;2227.20;;;;;;4911221;29;20057;-73
2021/01/31 10:39:25;;;;;;;116.20;46.13;;;51.20;2227.20;;;;;;4910153;29;20122;-74
2021/01/31 10:41:52;;;;;;;82.90;39.38;;;51.30;2227.20;;;;;;4908810;29;20043;-74
2021/01/31 10:44:27;;;;;;;98.78;43.67;;;51.20;2227.20;;;;;;4912047;29;20055;-74
2021/01/31 10:46:53;;;;;;;94.72;43.88;;;51.40;2227.20;;;;;;4919061;29;20141;-79
2021/01/31 10:49:19;;;;;;;96.55;43.35;;;51.30;2227.20;;;;;;4946877;28;20045;-76
2021/01/31 10:51:46;;;;;;;102.97;44.90;;;51.50;2227.20;;;;;;5053303;28;20042;-73
2021/01/31 10:54:13;;;;;;;94.00;43.75;;;51.20;2227.20;;;;;;5050169;28;20020;-70
2021/01/31 10:56:38;;;;;;;68.88;36.17;;;51.30;2227.20;;;;;;5051373;28;20063;-70
2021/01/31 10:59:05;;;;;;;66.95;34.53;;;51.30;2227.20;;;;;;5051043;28;20421;-71
2021/01/31 11:01:31;;;;;;;58.00;32.58;;;51.30;2227.20;;;;;;5049846;28;20649;-71
2021/01/31 11:03:57;;;;;;;61.65;33.55;;;51.40;2227.20;;;;;;5053404;28;20461;-74
2021/01/31 11:06:28;;;;;;;73.32;36.78;;;51.50;2227.20;;;;;;5053220;28;20012;-77
2021/01/31 11:08:54;;;;;;;97.13;42.28;;;51.50;2227.20;;;;;;5049201;28;20029;-74
2021/01/31 11:11:21;;;;;;;76.57;39.28;;;51.50;2227.20;;;;;;5054481;28;20052;-74
2021/01/31 11:13:48;;;;;;;81.10;39.25;;;51.50;2227.20;;;;;;5055794;28;20100;-72
2021/01/31 11:16:13;;;;;;;101.72;45.67;;;51.30;2227.20;;;;;;5060445;28;20375;-71
2021/01/31 11:18:39;;;;;;;81.75;40.35;;;51.40;2227.20;;;;;;5056841;28;20063;-70
2021/01/31 11:21:06;;;;;;;82.32;40.92;;;51.30;2227.20;;;;;;5055211;28;20049;-70
2021/01/31 11:23:31;;;;;;;74.45;38.97;;;51.30;2227.20;;;;;;5054006;28;20156;-70
2021/01/31 11:25:57;;;;;;;89.53;43.65;;;51.30;2227.20;;;;;;5054661;28;20104;-70
2021/01/31 11:28:23;;;;;;;91.53;43.33;;;51.40;2227.20;;;;;;5052334;28;20017;-76
2021/01/31 11:30:49;;;;;;;81.55;41.85;;;51.30;2227.20;;;;;;5055480;28;20033;-72
2021/01/31 11:33:15;;;;;;;105.28;46.30;;;51.30;2227.20;;;;;;5052347;28;20409;-70
2021/01/31 11:35:41;;;;;;;78.53;40.17;;;51.30;2227.20;;;;;;5051656;28;20036;-73
2021/01/31 11:38:07;;;;;;;66.03;36.40;;;51.40;2227.20;;;;;;5053754;28;20064;-71
2021/01/31 11:40:33;;;;;;;69.82;37.60;;;51.30;2227.20;;;;;;5052092;28;20033;-74
2021/01/31 11:43:08;;;;;;;75.82;39.80;;;51.30;2227.20;;;;;;5053334;28;20470;-84
2021/01/31 11:45:41;;;;;;;89.43;42.97;;;51.40;2227.20;;;;;;5072793;28;20040;-83
2021/01/31 11:48:07;;;;;;;60.80;36.07;;;51.40;2227.20;;;;;;5071813;28;20036;-77
2021/01/31 11:50:48;;;;;;;69.78;37.17;;;51.30;2227.20;;;;;;5064088;28;20285;-74
2021/01/31 11:53:15;;;;;;;66.95;35.35;;;51.30;2227.20;;;;;;5068382;28;20040;-81
2021/01/31 11:55:46;;;;;;;75.25;36.63;;;51.40;2227.20;;;;;;5071930;28;20036;-74
2021/01/31 11:58:14;;;;;;;62.47;32.63;;;51.40;2227.20;;;;;;5080126;28;20033;-73
2021/01/31 12:00:39;;;;;;;67.97;36.65;;;51.30;2227.20;;;;;;5077036;28;20020;-76
2021/01/31 12:03:08;;;;;;;80.47;40.08;;;51.30;2227.20;;;;;;5073501;28;20021;-78
2021/01/31 12:05:46;;;;;;;78.50;37.20;;;51.40;2227.20;;;;;;5080888;28;20025;-78
2021/01/31 12:08:11;;;;;;;59.47;33.80;;;51.40;2227.20;;;;;;5073026;28;20021;-81
2021/01/31 12:10:44;;;;;;;72.20;37.67;;;51.30;2227.20;;;;;;5072263;28;20074;-79
2021/01/31 12:13:10;;;;;;;53.83;31.98;;;51.20;2227.20;;;;;;5056530;28;20029;-77
2021/01/31 12:15:35;;;;;;;71.60;37.78;;;26.50;2201.60;;;;;;5042273;28;20048;-76
2021/01/31 12:18:01;;;;;;;69.95;37.40;;;26.50;2201.60;;;;;;5061639;28;20481;-74
2021/01/31 12:20:27;;;;;;;67.13;35.08;;;26.40;2201.60;;;;;;5056003;28;20060;-70
2021/01/31 12:22:52;;;;;;;66.05;36.70;;;26.30;2201.60;;;;;;5054582;28;20051;-73
2021/01/31 12:25:18;;;;;;;78.70;38.33;;;26.30;2201.60;;;;;;5057582;28;20063;-71
2021/01/31 12:27:48;;;;;;;77.40;36.97;;;26.30;2201.60;;;;;;5059889;28;20504;-73
2021/01/31 12:30:20;;;;;;;82.53;39.05;;;26.30;2201.60;;;;;;5054465;28;20044;-71
2021/01/31 12:32:46;;;;;;;87.68;41.83;;;26.40;2201.60;;;;;;5053223;28;20482;-73
2021/01/31 12:35:12;;;;;;;102.90;44.30;;;26.30;2201.60;;;;;;5054551;28;20032;-72
2021/01/31 12:37:38;;;;;;;65.53;35.08;;;26.40;2201.60;;;;;;5054421;28;20114;-71